sensor_id;sensor_type;location;lat;lon;timestamp;pressure;altitude;pressure_sealevel;temperature;humidity
967;BME280;56108;48.730;9.304;2023-04-29T00:01:51;96936.41;;;11.59;100.00
967;BME280;56108;48.730;9.304;2023-04-29T00:04:05;96937.75;;;11.53;100.00
967;BME280;56108;48.730;9.304;2023-04-29T00:06:14;96933.59;;;11.39;100.00
967;BME280;56108;48.730;9.304;2023-04-29T00:08:22;96935.44;;;11.39;100.00
967;BME280;56108;48.730;9.304;2023-04-29T00:10:30;96936.50;;;11.36;100.00
967;BME280;56108;48.730;9.304;2023-04-29T00:12:38;96927.25;;;11.52;100.00
967;BME280;56108;48.730;9.304;2023-04-29T00:14:46;96933.22;;;11.44;100.00
967;BME280;56108;48.730;9.304;2023-04-29T00:16:54;96932.88;;;11.58;100.00
967;BME280;56108;48.730;9.304;2023-04-29T00:19:06;96932.88;;;11.58;100.00
967;BME280;56108;48.730;9.304;2023-04-29T00:21:14;96927.69;;;11.57;100.00
967;BME280;56108;48.730;9.304;2023-04-29T00:23:22;96932.78;;;11.60;100.00
967;BME280;56108;48.730;9.304;2023-04-29T00:25:30;96934.72;;;11.58;100.00
967;BME280;56108;48.730;9.304;2023-04-29T00:27:39;96940.19;;;11.56;100.00
967;BME280;56108;48.730;9.304;2023-04-29T00:29:47;96931.88;;;11.49;100.00
967;BME280;56108;48.730;9.304;2023-04-29T00:31:55;96935.50;;;11.48;100.00
967;BME280;56108;48.730;9.304;2023-04-29T00:34:06;96940.00;;;11.37;100.00
967;BME280;56108;48.730;9.304;2023-04-29T00:36:14;96934.03;;;11.23;100.00
967;BME280;56108;48.730;9.304;2023-04-29T00:38:22;96934.88;;;11.24;100.00
967;BME280;56108;48.730;9.304;2023-04-29T00:40:33;96941.03;;;11.24;100.00
967;BME280;56108;48.730;9.304;2023-04-29T00:42:41;96933.19;;;11.12;100.00
967;BME280;56108;48.730;9.304;2023-04-29T00:44:49;96936.47;;;11.15;100.00
967;BME280;56108;48.730;9.304;2023-04-29T00:46:58;96926.59;;;11.38;100.00
967;BME280;56108;48.730;9.304;2023-04-29T00:49:09;96938.56;;;11.44;100.00
967;BME280;56108;48.730;9.304;2023-04-29T00:51:19;96938.00;;;11.29;100.00
967;BME280;56108;48.730;9.304;2023-04-29T00:53:28;96945.06;;;11.19;100.00
967;BME280;56108;48.730;9.304;2023-04-29T00:55:37;96941.88;;;11.25;100.00
967;BME280;56108;48.730;9.304;2023-04-29T00:57:45;96945.94;;;11.40;100.00
967;BME280;56108;48.730;9.304;2023-04-29T00:59:56;96952.97;;;11.41;100.00
967;BME280;56108;48.730;9.304;2023-04-29T01:02:05;96946.19;;;11.37;100.00
967;BME280;56108;48.730;9.304;2023-04-29T01:04:16;96955.66;;;11.62;100.00
967;BME280;56108;48.730;9.304;2023-04-29T01:06:28;96949.00;;;11.57;100.00
967;BME280;56108;48.730;9.304;2023-04-29T01:08:49;96961.88;;;11.52;100.00
967;BME280;56108;48.730;9.304;2023-04-29T01:11:06;96955.09;;;11.47;100.00
967;BME280;56108;48.730;9.304;2023-04-29T01:13:17;96965.56;;;11.39;100.00
967;BME280;56108;48.730;9.304;2023-04-29T01:15:36;96960.03;;;11.31;100.00
967;BME280;56108;48.730;9.304;2023-04-29T01:17:50;96961.13;;;11.29;100.00
967;BME280;56108;48.730;9.304;2023-04-29T01:20:04;96960.28;;;11.28;100.00
967;BME280;56108;48.730;9.304;2023-04-29T01:22:13;96964.03;;;11.26;100.00
967;BME280;56108;48.730;9.304;2023-04-29T01:24:25;96967.06;;;11.21;100.00
967;BME280;56108;48.730;9.304;2023-04-29T01:26:33;96964.03;;;11.26;100.00
967;BME280;56108;48.730;9.304;2023-04-29T01:29:00;96964.03;;;11.26;100.00
967;BME280;56108;48.730;9.304;2023-04-29T01:31:18;96962.59;;;11.21;100.00
967;BME280;56108;48.730;9.304;2023-04-29T01:33:34;96961.44;;;11.03;100.00
967;BME280;56108;48.730;9.304;2023-04-29T01:35:57;96967.00;;;11.00;100.00
967;BME280;56108;48.730;9.304;2023-04-29T01:38:16;96968.97;;;10.98;100.00
967;BME280;56108;48.730;9.304;2023-04-29T01:40:35;96956.00;;;11.05;100.00
967;BME280;56108;48.730;9.304;2023-04-29T01:42:59;96972.47;;;10.98;100.00
967;BME280;56108;48.730;9.304;2023-04-29T01:45:14;96971.84;;;10.95;100.00
967;BME280;56108;48.730;9.304;2023-04-29T01:47:23;96965.47;;;10.86;100.00
967;BME280;56108;48.730;9.304;2023-04-29T01:49:34;96965.22;;;10.89;100.00
967;BME280;56108;48.730;9.304;2023-04-29T01:51:44;96964.09;;;11.03;100.00
967;BME280;56108;48.730;9.304;2023-04-29T01:53:52;96958.16;;;11.11;100.00
967;BME280;56108;48.730;9.304;2023-04-29T01:56:05;96958.44;;;10.96;100.00
967;BME280;56108;48.730;9.304;2023-04-29T01:58:42;96964.16;;;10.81;100.00
967;BME280;56108;48.730;9.304;2023-04-29T02:01:08;96959.19;;;10.87;100.00
967;BME280;56108;48.730;9.304;2023-04-29T02:03:17;96958.84;;;10.81;100.00
967;BME280;56108;48.730;9.304;2023-04-29T02:05:28;96953.75;;;10.78;100.00
967;BME280;56108;48.730;9.304;2023-04-29T02:07:38;96956.38;;;10.89;100.00
967;BME280;56108;48.730;9.304;2023-04-29T02:09:48;96954.22;;;10.83;100.00
967;BME280;56108;48.730;9.304;2023-04-29T02:12:02;96957.38;;;10.88;100.00
967;BME280;56108;48.730;9.304;2023-04-29T02:14:10;96949.69;;;11.06;100.00
967;BME280;56108;48.730;9.304;2023-04-29T02:16:19;96961.19;;;11.06;100.00
967;BME280;56108;48.730;9.304;2023-04-29T02:18:34;96957.25;;;11.21;100.00
967;BME280;56108;48.730;9.304;2023-04-29T02:20:43;96962.25;;;11.15;100.00
967;BME280;56108;48.730;9.304;2023-04-29T02:22:51;96965.78;;;11.04;100.00
967;BME280;56108;48.730;9.304;2023-04-29T02:24:59;96975.38;;;10.95;100.00
967;BME280;56108;48.730;9.304;2023-04-29T02:27:11;96978.78;;;10.86;100.00
967;BME280;56108;48.730;9.304;2023-04-29T02:29:19;96985.78;;;10.98;100.00
967;BME280;56108;48.730;9.304;2023-04-29T02:31:27;96976.69;;;11.01;100.00
967;BME280;56108;48.730;9.304;2023-04-29T02:33:35;96980.34;;;10.89;100.00
967;BME280;56108;48.730;9.304;2023-04-29T02:35:46;96981.56;;;10.85;100.00
967;BME280;56108;48.730;9.304;2023-04-29T02:37:54;96983.75;;;10.80;100.00
967;BME280;56108;48.730;9.304;2023-04-29T02:40:02;96978.78;;;10.86;100.00
967;BME280;56108;48.730;9.304;2023-04-29T02:42:14;96986.41;;;10.80;100.00
967;BME280;56108;48.730;9.304;2023-04-29T02:44:22;96992.47;;;10.70;100.00
967;BME280;56108;48.730;9.304;2023-04-29T02:46:30;96992.22;;;10.62;100.00
967;BME280;56108;48.730;9.304;2023-04-29T02:48:40;96992.94;;;10.53;100.00
967;BME280;56108;48.730;9.304;2023-04-29T02:50:49;96988.59;;;10.63;100.00
967;BME280;56108;48.730;9.304;2023-04-29T02:52:57;96982.53;;;10.84;100.00
967;BME280;56108;48.730;9.304;2023-04-29T02:55:06;96993.44;;;10.69;100.00
967;BME280;56108;48.730;9.304;2023-04-29T02:57:17;96995.25;;;10.69;100.00
967;BME280;56108;48.730;9.304;2023-04-29T02:59:25;96997.78;;;10.59;100.00
967;BME280;56108;48.730;9.304;2023-04-29T03:01:33;96997.19;;;10.56;100.00
967;BME280;56108;48.730;9.304;2023-04-29T03:03:42;96997.06;;;10.57;100.00
967;BME280;56108;48.730;9.304;2023-04-29T03:05:50;96992.38;;;10.61;100.00
967;BME280;56108;48.730;9.304;2023-04-29T03:07:58;96993.06;;;10.63;100.00
967;BME280;56108;48.730;9.304;2023-04-29T03:10:09;97000.56;;;10.58;100.00
967;BME280;56108;48.730;9.304;2023-04-29T03:12:20;96992.59;;;10.47;100.00
967;BME280;56108;48.730;9.304;2023-04-29T03:14:28;96997.19;;;10.44;100.00
967;BME280;56108;48.730;9.304;2023-04-29T03:16:36;96994.91;;;10.51;100.00
967;BME280;56108;48.730;9.304;2023-04-29T03:18:44;97002.03;;;10.39;100.00
967;BME280;56108;48.730;9.304;2023-04-29T03:20:52;97002.13;;;10.49;100.00
967;BME280;56108;48.730;9.304;2023-04-29T03:23:00;96994.41;;;10.46;100.00
967;BME280;56108;48.730;9.304;2023-04-29T03:25:09;96999.72;;;10.46;100.00
967;BME280;56108;48.730;9.304;2023-04-29T03:27:21;96994.91;;;10.51;100.00
967;BME280;56108;48.730;9.304;2023-04-29T03:29:29;96986.44;;;10.46;100.00
967;BME280;56108;48.730;9.304;2023-04-29T03:31:37;96983.78;;;10.57;100.00
967;BME280;56108;48.730;9.304;2023-04-29T03:33:45;96980.88;;;10.60;100.00
967;BME280;56108;48.730;9.304;2023-04-29T03:35:55;96988.00;;;10.60;100.00
967;BME280;56108;48.730;9.304;2023-04-29T03:38:13;96985.44;;;10.69;100.00
967;BME280;56108;48.730;9.304;2023-04-29T03:40:22;96974.59;;;10.61;100.00
967;BME280;56108;48.730;9.304;2023-04-29T03:42:33;96972.75;;;10.62;100.00
967;BME280;56108;48.730;9.304;2023-04-29T03:44:40;96976.50;;;10.48;100.00
967;BME280;56108;48.730;9.304;2023-04-29T03:46:49;96977.84;;;10.42;100.00
967;BME280;56108;48.730;9.304;2023-04-29T03:48:59;96978.19;;;10.38;100.00
967;BME280;56108;48.730;9.304;2023-04-29T03:51:07;96971.53;;;10.32;100.00
967;BME280;56108;48.730;9.304;2023-04-29T03:53:16;96968.78;;;10.34;100.00
967;BME280;56108;48.730;9.304;2023-04-29T03:55:24;96971.06;;;10.27;100.00
967;BME280;56108;48.730;9.304;2023-04-29T03:57:35;96967.91;;;10.33;100.00
967;BME280;56108;48.730;9.304;2023-04-29T03:59:46;96960.69;;;10.47;100.00
967;BME280;56108;48.730;9.304;2023-04-29T04:01:55;96963.47;;;10.45;100.00
967;BME280;56108;48.730;9.304;2023-04-29T04:04:04;96965.63;;;10.51;100.00
967;BME280;56108;48.730;9.304;2023-04-29T04:06:16;96961.28;;;10.50;100.00
967;BME280;56108;48.730;9.304;2023-04-29T04:08:28;96965.78;;;10.50;100.00
967;BME280;56108;48.730;9.304;2023-04-29T04:10:46;96966.59;;;10.50;100.00
967;BME280;56108;48.730;9.304;2023-04-29T04:13:08;96978.59;;;10.44;100.00
967;BME280;56108;48.730;9.304;2023-04-29T04:15:16;96974.81;;;10.36;100.00
967;BME280;56108;48.730;9.304;2023-04-29T04:17:26;96983.78;;;10.35;100.00
967;BME280;56108;48.730;9.304;2023-04-29T04:19:34;96988.69;;;10.28;100.00
967;BME280;56108;48.730;9.304;2023-04-29T04:21:44;96983.38;;;10.28;100.00
967;BME280;56108;48.730;9.304;2023-04-29T04:23:52;96988.19;;;10.23;100.00
967;BME280;56108;48.730;9.304;2023-04-29T04:26:01;96988.00;;;10.26;100.00
967;BME280;56108;48.730;9.304;2023-04-29T04:28:31;96989.88;;;10.13;100.00
967;BME280;56108;48.730;9.304;2023-04-29T04:30:45;97000.31;;;10.27;100.00
967;BME280;56108;48.730;9.304;2023-04-29T04:32:53;96991.72;;;10.80;100.00
967;BME280;56108;48.730;9.304;2023-04-29T04:35:02;96985.19;;;11.38;100.00
967;BME280;56108;48.730;9.304;2023-04-29T04:37:10;96993.44;;;11.35;100.00
967;BME280;56108;48.730;9.304;2023-04-29T04:39:23;96991.16;;;11.31;100.00
967;BME280;56108;48.730;9.304;2023-04-29T04:41:35;96995.19;;;11.14;100.00
967;BME280;56108;48.730;9.304;2023-04-29T04:43:47;97000.00;;;11.20;100.00
967;BME280;56108;48.730;9.304;2023-04-29T04:46:09;96993.88;;;11.72;100.00
967;BME280;56108;48.730;9.304;2023-04-29T04:48:38;97000.09;;;12.36;100.00
967;BME280;56108;48.730;9.304;2023-04-29T04:50:50;96981.13;;;13.10;100.00
967;BME280;56108;48.730;9.304;2023-04-29T04:52:58;96984.00;;;12.87;100.00
967;BME280;56108;48.730;9.304;2023-04-29T04:55:29;96973.34;;;13.66;100.00
967;BME280;56108;48.730;9.304;2023-04-29T04:57:38;96970.88;;;14.21;100.00
967;BME280;56108;48.730;9.304;2023-04-29T04:59:51;96980.56;;;14.51;100.00
967;BME280;56108;48.730;9.304;2023-04-29T05:01:58;96975.50;;;14.29;100.00
967;BME280;56108;48.730;9.304;2023-04-29T05:04:07;96984.28;;;14.02;100.00
967;BME280;56108;48.730;9.304;2023-04-29T05:06:15;97031.00;;;14.46;100.00
967;BME280;56108;48.730;9.304;2023-04-29T05:08:25;97118.00;;;15.36;100.00
967;BME280;56108;48.730;9.304;2023-04-29T05:10:36;97243.47;;;15.32;100.00
967;BME280;56108;48.730;9.304;2023-04-29T05:12:45;97295.13;;;14.76;100.00
967;BME280;56108;48.730;9.304;2023-04-29T05:14:56;97301.88;;;14.11;100.00
967;BME280;56108;48.730;9.304;2023-04-29T05:17:07;97300.16;;;13.70;100.00
967;BME280;56108;48.730;9.304;2023-04-29T05:19:16;97299.56;;;13.66;100.00
967;BME280;56108;48.730;9.304;2023-04-29T05:21:25;97296.84;;;13.56;100.00
967;BME280;56108;48.730;9.304;2023-04-29T05:23:34;97299.88;;;13.42;100.00
967;BME280;56108;48.730;9.304;2023-04-29T05:25:42;97300.44;;;13.25;100.00
967;BME280;56108;48.730;9.304;2023-04-29T05:27:53;97298.53;;;13.16;100.00
967;BME280;56108;48.730;9.304;2023-04-29T05:30:07;97296.13;;;13.13;100.00
967;BME280;56108;48.730;9.304;2023-04-29T05:32:15;97297.09;;;13.12;100.00
967;BME280;56108;48.730;9.304;2023-04-29T05:34:24;97296.72;;;13.16;100.00
967;BME280;56108;48.730;9.304;2023-04-29T05:36:33;97305.53;;;13.28;100.00
967;BME280;56108;48.730;9.304;2023-04-29T05:38:41;97306.63;;;13.25;100.00
967;BME280;56108;48.730;9.304;2023-04-29T05:40:49;97304.56;;;13.29;100.00
967;BME280;56108;48.730;9.304;2023-04-29T05:43:30;97302.63;;;13.20;100.00
967;BME280;56108;48.730;9.304;2023-04-29T05:45:40;97309.22;;;13.16;100.00
967;BME280;56108;48.730;9.304;2023-04-29T05:47:48;97311.53;;;13.09;100.00
967;BME280;56108;48.730;9.304;2023-04-29T05:49:57;97306.06;;;12.90;100.00
967;BME280;56108;48.730;9.304;2023-04-29T05:52:05;97305.94;;;12.91;100.00
967;BME280;56108;48.730;9.304;2023-04-29T05:54:20;97308.75;;;12.90;100.00
967;BME280;56108;48.730;9.304;2023-04-29T05:56:29;97312.13;;;12.92;100.00
967;BME280;56108;48.730;9.304;2023-04-29T05:58:38;97315.16;;;12.87;100.00
967;BME280;56108;48.730;9.304;2023-04-29T06:00:49;97326.16;;;13.05;100.00
967;BME280;56108;48.730;9.304;2023-04-29T06:03:02;97335.97;;;13.04;100.00
967;BME280;56108;48.730;9.304;2023-04-29T06:05:11;97345.88;;;13.46;100.00
967;BME280;56108;48.730;9.304;2023-04-29T06:07:30;97364.16;;;13.92;100.00
967;BME280;56108;48.730;9.304;2023-04-29T06:09:48;97378.25;;;14.55;100.00
967;BME280;56108;48.730;9.304;2023-04-29T06:11:56;97382.88;;;16.18;100.00
967;BME280;56108;48.730;9.304;2023-04-29T06:14:04;97398.53;;;16.60;100.00
967;BME280;56108;48.730;9.304;2023-04-29T06:16:15;97399.25;;;16.72;100.00
967;BME280;56108;48.730;9.304;2023-04-29T06:18:23;97412.75;;;17.96;100.00
967;BME280;56108;48.730;9.304;2023-04-29T06:20:31;97417.31;;;17.78;100.00
967;BME280;56108;48.730;9.304;2023-04-29T06:22:41;97415.59;;;17.41;100.00
967;BME280;56108;48.730;9.304;2023-04-29T06:24:49;97419.63;;;17.55;100.00
967;BME280;56108;48.730;9.304;2023-04-29T06:27:04;97430.69;;;19.08;96.62
967;BME280;56108;48.730;9.304;2023-04-29T06:29:12;97430.09;;;18.80;94.34
967;BME280;56108;48.730;9.304;2023-04-29T06:31:22;97431.44;;;18.84;94.34
967;BME280;56108;48.730;9.304;2023-04-29T06:33:36;97429.16;;;20.21;89.42
967;BME280;56108;48.730;9.304;2023-04-29T06:35:47;97443.16;;;21.28;81.31
967;BME280;56108;48.730;9.304;2023-04-29T06:38:15;97443.47;;;20.30;80.20
967;BME280;56108;48.730;9.304;2023-04-29T06:40:42;97443.06;;;19.35;86.34
967;BME280;56108;48.730;9.304;2023-04-29T06:43:18;97438.94;;;18.64;91.10
967;BME280;56108;48.730;9.304;2023-04-29T06:45:53;97438.97;;;17.41;96.12
967;BME280;56108;48.730;9.304;2023-04-29T06:48:19;97436.34;;;16.86;100.00
967;BME280;56108;48.730;9.304;2023-04-29T06:50:30;97436.34;;;16.49;100.00
967;BME280;56108;48.730;9.304;2023-04-29T06:52:38;97440.75;;;15.93;100.00
967;BME280;56108;48.730;9.304;2023-04-29T06:54:48;97432.31;;;15.78;100.00
967;BME280;56108;48.730;9.304;2023-04-29T06:56:57;97434.84;;;14.81;100.00
967;BME280;56108;48.730;9.304;2023-04-29T06:59:06;97430.69;;;14.27;100.00
967;BME280;56108;48.730;9.304;2023-04-29T07:01:16;97436.09;;;14.37;100.00
967;BME280;56108;48.730;9.304;2023-04-29T07:03:27;97432.16;;;14.72;100.00
967;BME280;56108;48.730;9.304;2023-04-29T07:05:35;97444.19;;;14.87;100.00
967;BME280;56108;48.730;9.304;2023-04-29T07:07:45;97456.41;;;15.20;100.00
967;BME280;56108;48.730;9.304;2023-04-29T07:09:55;97447.59;;;14.89;100.00
967;BME280;56108;48.730;9.304;2023-04-29T07:12:04;97447.63;;;14.99;100.00
967;BME280;56108;48.730;9.304;2023-04-29T07:14:12;97444.84;;;14.70;100.00
967;BME280;56108;48.730;9.304;2023-04-29T07:16:20;97450.38;;;14.87;100.00
967;BME280;56108;48.730;9.304;2023-04-29T07:18:33;97455.91;;;14.96;100.00
967;BME280;56108;48.730;9.304;2023-04-29T07:20:41;97454.50;;;14.92;100.00
967;BME280;56108;48.730;9.304;2023-04-29T07:22:51;97464.22;;;14.83;100.00
967;BME280;56108;48.730;9.304;2023-04-29T07:24:59;97454.44;;;14.42;100.00
967;BME280;56108;48.730;9.304;2023-04-29T07:27:08;97453.41;;;14.33;100.00
967;BME280;56108;48.730;9.304;2023-04-29T07:29:16;97453.81;;;14.07;100.00
967;BME280;56108;48.730;9.304;2023-04-29T07:31:24;97460.28;;;13.84;100.00
967;BME280;56108;48.730;9.304;2023-04-29T07:33:36;97457.16;;;13.79;100.00
967;BME280;56108;48.730;9.304;2023-04-29T07:35:46;97460.31;;;13.52;100.00
967;BME280;56108;48.730;9.304;2023-04-29T07:37:55;97462.88;;;13.53;100.00
967;BME280;56108;48.730;9.304;2023-04-29T07:40:04;97464.03;;;13.61;100.00
967;BME280;56108;48.730;9.304;2023-04-29T07:42:15;97464.81;;;13.51;100.00
967;BME280;56108;48.730;9.304;2023-04-29T07:44:23;97462.06;;;13.74;100.00
967;BME280;56108;48.730;9.304;2023-04-29T07:46:31;97462.59;;;13.89;100.00
967;BME280;56108;48.730;9.304;2023-04-29T07:48:42;97467.91;;;14.30;100.00
967;BME280;56108;48.730;9.304;2023-04-29T07:50:50;97483.28;;;14.99;100.00
967;BME280;56108;48.730;9.304;2023-04-29T07:52:58;97479.31;;;15.63;100.00
967;BME280;56108;48.730;9.304;2023-04-29T07:55:07;97474.84;;;16.39;100.00
967;BME280;56108;48.730;9.304;2023-04-29T07:57:16;97482.94;;;17.04;100.00
967;BME280;56108;48.730;9.304;2023-04-29T07:59:24;97489.25;;;17.58;99.80
967;BME280;56108;48.730;9.304;2023-04-29T08:01:32;97494.41;;;17.34;100.00
967;BME280;56108;48.730;9.304;2023-04-29T08:03:43;97496.59;;;17.20;97.26
967;BME280;56108;48.730;9.304;2023-04-29T08:05:54;97497.91;;;16.79;96.03
967;BME280;56108;48.730;9.304;2023-04-29T08:08:02;97493.84;;;16.18;99.47
967;BME280;56108;48.730;9.304;2023-04-29T08:10:10;97493.84;;;16.09;100.00
967;BME280;56108;48.730;9.304;2023-04-29T08:12:18;97493.69;;;16.10;100.00
967;BME280;56108;48.730;9.304;2023-04-29T08:14:26;97503.28;;;16.13;100.00
967;BME280;56108;48.730;9.304;2023-04-29T08:16:35;97503.19;;;16.05;100.00
967;BME280;56108;48.730;9.304;2023-04-29T08:18:46;97506.97;;;16.02;100.00
967;BME280;56108;48.730;9.304;2023-04-29T08:20:56;97500.66;;;16.03;100.00
967;BME280;56108;48.730;9.304;2023-04-29T08:23:04;97503.88;;;15.97;100.00
967;BME280;56108;48.730;9.304;2023-04-29T08:25:12;97512.22;;;15.94;100.00
967;BME280;56108;48.730;9.304;2023-04-29T08:27:20;97504.75;;;15.78;100.00
967;BME280;56108;48.730;9.304;2023-04-29T08:29:30;97512.50;;;15.91;100.00
967;BME280;56108;48.730;9.304;2023-04-29T08:31:39;97516.69;;;15.55;100.00
967;BME280;56108;48.730;9.304;2023-04-29T08:33:49;97514.31;;;15.61;100.00
967;BME280;56108;48.730;9.304;2023-04-29T08:35:58;97518.88;;;15.11;100.00
967;BME280;56108;48.730;9.304;2023-04-29T08:38:08;97510.75;;;15.42;100.00
967;BME280;56108;48.730;9.304;2023-04-29T08:40:20;97511.88;;;15.39;100.00
967;BME280;56108;48.730;9.304;2023-04-29T08:42:32;97519.34;;;15.26;100.00
967;BME280;56108;48.730;9.304;2023-04-29T08:44:42;97517.22;;;15.39;100.00
967;BME280;56108;48.730;9.304;2023-04-29T08:46:51;97518.50;;;15.25;100.00
967;BME280;56108;48.730;9.304;2023-04-29T08:49:03;97512.00;;;15.37;100.00
967;BME280;56108;48.730;9.304;2023-04-29T08:51:11;97513.16;;;15.35;100.00
967;BME280;56108;48.730;9.304;2023-04-29T08:53:20;97512.81;;;15.88;100.00
967;BME280;56108;48.730;9.304;2023-04-29T08:55:28;97508.81;;;16.02;95.99
967;BME280;56108;48.730;9.304;2023-04-29T08:57:36;97512.75;;;16.07;94.19
967;BME280;56108;48.730;9.304;2023-04-29T08:59:45;97502.44;;;16.22;96.77
967;BME280;56108;48.730;9.304;2023-04-29T09:01:56;97510.13;;;16.54;99.87
967;BME280;56108;48.730;9.304;2023-04-29T09:04:14;97517.78;;;16.49;95.55
967;BME280;56108;48.730;9.304;2023-04-29T09:06:23;97514.75;;;15.96;97.55
967;BME280;56108;48.730;9.304;2023-04-29T09:08:31;97513.06;;;15.85;100.00
967;BME280;56108;48.730;9.304;2023-04-29T09:10:41;97518.16;;;15.78;100.00
967;BME280;56108;48.730;9.304;2023-04-29T09:12:49;97520.66;;;15.60;100.00
967;BME280;56108;48.730;9.304;2023-04-29T09:14:57;97518.38;;;15.36;100.00
967;BME280;56108;48.730;9.304;2023-04-29T09:17:06;97517.47;;;14.76;100.00
967;BME280;56108;48.730;9.304;2023-04-29T09:19:33;97518.28;;;14.46;100.00
967;BME280;56108;48.730;9.304;2023-04-29T09:21:41;97512.94;;;14.46;100.00
967;BME280;56108;48.730;9.304;2023-04-29T09:24:02;97511.31;;;14.55;100.00
967;BME280;56108;48.730;9.304;2023-04-29T09:26:10;97513.44;;;14.61;100.00
967;BME280;56108;48.730;9.304;2023-04-29T09:28:18;97514.19;;;14.63;100.00
967;BME280;56108;48.730;9.304;2023-04-29T09:30:27;97529.13;;;14.66;100.00
967;BME280;56108;48.730;9.304;2023-04-29T09:32:35;97529.44;;;15.12;100.00
967;BME280;56108;48.730;9.304;2023-04-29T09:34:47;97527.56;;;16.50;100.00
967;BME280;56108;48.730;9.304;2023-04-29T09:36:56;97531.69;;;16.91;95.60
967;BME280;56108;48.730;9.304;2023-04-29T09:39:04;97535.63;;;16.97;93.67
967;BME280;56108;48.730;9.304;2023-04-29T09:41:16;97535.28;;;17.10;92.55
967;BME280;56108;48.730;9.304;2023-04-29T09:43:24;97536.56;;;17.06;91.63
967;BME280;56108;48.730;9.304;2023-04-29T09:45:33;97541.13;;;16.95;92.16
967;BME280;56108;48.730;9.304;2023-04-29T09:47:42;97534.69;;;16.69;91.04
967;BME280;56108;48.730;9.304;2023-04-29T09:49:53;97532.59;;;16.73;94.48
967;BME280;56108;48.730;9.304;2023-04-29T09:52:20;97548.75;;;17.00;90.30
967;BME280;56108;48.730;9.304;2023-04-29T09:54:29;97543.75;;;16.68;91.89
967;BME280;56108;48.730;9.304;2023-04-29T09:56:48;97551.13;;;17.13;87.15
967;BME280;56108;48.730;9.304;2023-04-29T09:59:06;97559.75;;;18.07;81.13
967;BME280;56108;48.730;9.304;2023-04-29T10:01:15;97554.97;;;18.81;78.34
967;BME280;56108;48.730;9.304;2023-04-29T10:03:27;97568.16;;;19.26;70.85
967;BME280;56108;48.730;9.304;2023-04-29T10:05:41;97558.28;;;19.35;74.47
967;BME280;56108;48.730;9.304;2023-04-29T10:07:51;97571.91;;;19.59;68.86
967;BME280;56108;48.730;9.304;2023-04-29T10:09:59;97558.69;;;19.14;72.11
967;BME280;56108;48.730;9.304;2023-04-29T10:12:09;97551.47;;;18.88;73.18
967;BME280;56108;48.730;9.304;2023-04-29T10:14:21;97551.81;;;18.67;72.57
967;BME280;56108;48.730;9.304;2023-04-29T10:16:33;97554.59;;;19.01;71.42
967;BME280;56108;48.730;9.304;2023-04-29T10:18:50;97559.69;;;20.05;70.95
967;BME280;56108;48.730;9.304;2023-04-29T10:21:02;97577.69;;;19.80;63.23
967;BME280;56108;48.730;9.304;2023-04-29T10:23:14;97570.59;;;19.88;64.64
967;BME280;56108;48.730;9.304;2023-04-29T10:25:23;97576.81;;;19.64;64.82
967;BME280;56108;48.730;9.304;2023-04-29T10:27:33;97562.38;;;19.89;65.08
967;BME280;56108;48.730;9.304;2023-04-29T10:29:44;97576.41;;;20.33;61.11
967;BME280;56108;48.730;9.304;2023-04-29T10:31:53;97569.19;;;20.58;62.09
967;BME280;56108;48.730;9.304;2023-04-29T10:34:04;97565.41;;;21.00;61.32
967;BME280;56108;48.730;9.304;2023-04-29T10:36:15;97586.84;;;21.66;55.35
967;BME280;56108;48.730;9.304;2023-04-29T10:38:27;97593.44;;;21.16;53.47
967;BME280;56108;48.730;9.304;2023-04-29T10:40:40;97592.88;;;22.61;52.34
967;BME280;56108;48.730;9.304;2023-04-29T10:42:50;97583.09;;;21.98;53.27
967;BME280;56108;48.730;9.304;2023-04-29T10:45:21;97589.44;;;22.44;53.09
967;BME280;56108;48.730;9.304;2023-04-29T10:47:30;97576.50;;;22.00;53.12
967;BME280;56108;48.730;9.304;2023-04-29T10:49:39;97577.22;;;21.63;54.28
967;BME280;56108;48.730;9.304;2023-04-29T10:51:50;97559.69;;;21.51;57.81
967;BME280;56108;48.730;9.304;2023-04-29T10:53:59;97573.22;;;21.82;54.53
967;BME280;56108;48.730;9.304;2023-04-29T10:56:08;97574.63;;;21.70;53.66
967;BME280;56108;48.730;9.304;2023-04-29T10:58:40;97561.88;;;20.10;56.73
967;BME280;56108;48.730;9.304;2023-04-29T11:00:48;97557.09;;;19.79;58.02
967;BME280;56108;48.730;9.304;2023-04-29T11:02:58;97553.22;;;19.74;60.64
967;BME280;56108;48.730;9.304;2023-04-29T11:05:08;97554.03;;;19.66;59.85
967;BME280;56108;48.730;9.304;2023-04-29T11:07:28;97545.88;;;19.58;62.21
967;BME280;56108;48.730;9.304;2023-04-29T11:09:36;97547.13;;;19.29;60.86
967;BME280;56108;48.730;9.304;2023-04-29T11:11:58;97547.59;;;18.65;61.67
967;BME280;56108;48.730;9.304;2023-04-29T11:14:08;97537.16;;;18.44;60.76
967;BME280;56108;48.730;9.304;2023-04-29T11:16:25;97530.81;;;18.09;64.11
967;BME280;56108;48.730;9.304;2023-04-29T11:18:35;97536.91;;;17.76;64.40
967;BME280;56108;48.730;9.304;2023-04-29T11:21:11;97526.41;;;18.26;66.21
967;BME280;56108;48.730;9.304;2023-04-29T11:23:23;97532.22;;;18.83;66.31
967;BME280;56108;48.730;9.304;2023-04-29T11:25:32;97538.53;;;19.00;63.78
967;BME280;56108;48.730;9.304;2023-04-29T11:27:44;97528.41;;;18.68;64.59
967;BME280;56108;48.730;9.304;2023-04-29T11:29:54;97525.78;;;18.32;64.66
967;BME280;56108;48.730;9.304;2023-04-29T11:32:03;97526.69;;;17.97;66.87
967;BME280;56108;48.730;9.304;2023-04-29T11:34:11;97524.19;;;18.21;67.54
967;BME280;56108;48.730;9.304;2023-04-29T11:36:19;97530.44;;;18.04;65.04
967;BME280;56108;48.730;9.304;2023-04-29T11:38:30;97522.38;;;17.59;66.32
967;BME280;56108;48.730;9.304;2023-04-29T11:40:41;97512.63;;;17.58;73.84
967;BME280;56108;48.730;9.304;2023-04-29T11:42:49;97526.94;;;17.58;67.67
967;BME280;56108;48.730;9.304;2023-04-29T11:44:57;97526.69;;;17.97;65.46
967;BME280;56108;48.730;9.304;2023-04-29T11:47:06;97524.84;;;17.97;65.63